createdAt,value
2019-05-20T00:01:14.383Z,92.20
2019-05-20T00:03:40.673Z,92.30
2019-05-20T00:06:07.416Z,92.30
2019-05-20T00:08:33.824Z,92.30
2019-05-20T00:11:00.100Z,92.30
2019-05-20T00:13:26.362Z,92.30
2019-05-20T00:15:52.622Z,92.30
2019-05-20T00:18:18.865Z,92.40
2019-05-20T00:20:45.209Z,92.50
2019-05-20T00:23:11.479Z,92.50
2019-05-20T00:25:37.739Z,92.50
2019-05-20T00:28:03.955Z,92.90
2019-05-20T00:30:30.181Z,92.60
2019-05-20T00:32:56.427Z,92.60
2019-05-20T00:35:22.640Z,92.50
2019-05-20T00:37:48.865Z,92.60
2019-05-20T00:40:15.286Z,92.50
2019-05-20T00:42:41.537Z,92.50
2019-05-20T00:45:10.004Z,92.30
2019-05-20T00:47:36.259Z,92.30
2019-05-20T00:50:04.184Z,92.30
2019-05-20T00:52:30.543Z,92.30
2019-05-20T00:54:56.889Z,92.30
2019-05-20T00:57:23.188Z,92.20
2019-05-20T00:59:49.432Z,92.20
2019-05-20T01:02:15.749Z,92.20
2019-05-20T01:04:42.054Z,92.20
2019-05-20T01:07:08.280Z,92.50
2019-05-20T01:09:34.508Z,92.30
2019-05-20T01:12:00.758Z,92.30
2019-05-20T01:14:27.069Z,92.40
2019-05-20T01:16:53.329Z,92.40
2019-05-20T01:19:19.569Z,92.40
2019-05-20T01:21:45.807Z,92.30
2019-05-20T01:24:12.099Z,92.40
2019-05-20T01:26:38.345Z,92.40
2019-05-20T01:29:04.616Z,92.40
2019-05-20T01:31:30.890Z,92.30
2019-05-20T01:33:57.147Z,92.30
2019-05-20T01:36:23.429Z,92.20
2019-05-20T01:38:49.698Z,92.30
2019-05-20T01:41:15.927Z,92.20
2019-05-20T01:43:42.143Z,92.20
2019-05-20T01:46:08.444Z,92.20
2019-05-20T01:48:34.748Z,92.20
2019-05-20T01:51:01.077Z,92.20
2019-05-20T01:53:27.776Z,92.20
2019-05-20T01:55:54.021Z,92.20
2019-05-20T01:58:20.291Z,92.20
2019-05-20T02:00:46.554Z,92.20
2019-05-20T02:03:12.784Z,92.20
2019-05-20T02:05:39.135Z,92.20
2019-05-20T02:08:05.340Z,92.20
2019-05-20T02:10:31.588Z,92.30
2019-05-20T02:12:57.840Z,92.30
2019-05-20T02:15:31.908Z,92.30
2019-05-20T02:17:58.131Z,92.40
2019-05-20T02:20:24.391Z,92.40
2019-05-20T02:22:50.722Z,92.50
2019-05-20T02:25:17.276Z,92.50
2019-05-20T02:27:43.534Z,92.60
2019-05-20T02:30:10.620Z,92.50
2019-05-20T02:32:36.856Z,92.40
2019-05-20T02:35:06.852Z,92.40
2019-05-20T02:37:33.130Z,92.50
2019-05-20T02:40:01.358Z,92.40
2019-05-20T02:42:27.600Z,92.30
2019-05-20T02:44:53.867Z,92.40
2019-05-20T02:47:20.242Z,92.40
2019-05-20T02:49:46.806Z,92.50
2019-05-20T02:52:13.177Z,92.60
2019-05-20T02:54:39.421Z,92.70
2019-05-20T02:57:05.766Z,92.60
2019-05-20T02:59:32.061Z,92.70
2019-05-20T03:01:58.284Z,92.70
2019-05-20T03:04:24.525Z,92.80
2019-05-20T03:06:50.905Z,92.80
2019-05-20T03:09:17.276Z,92.90
2019-05-20T03:11:43.559Z,92.90
2019-05-20T03:14:10.237Z,93.10
2019-05-20T03:16:37.033Z,93.10
2019-05-20T03:19:03.674Z,93.30
2019-05-20T03:21:30.113Z,93.20
2019-05-20T03:23:56.659Z,93.30
2019-05-20T03:26:23.110Z,93.20
2019-05-20T03:28:51.553Z,93.20
2019-05-20T03:31:17.923Z,93.30
2019-05-20T03:33:46.586Z,93.30
2019-05-20T03:36:12.999Z,93.30
2019-05-20T03:38:41.506Z,93.30
2019-05-20T03:41:07.850Z,93.50
2019-05-20T03:43:34.261Z,93.60
2019-05-20T03:46:00.507Z,93.70
2019-05-20T03:48:26.920Z,93.60
2019-05-20T03:50:53.272Z,93.70
2019-05-20T03:53:19.546Z,93.60
2019-05-20T03:55:45.802Z,93.60
2019-05-20T03:58:13.659Z,93.60
2019-05-20T04:00:44.275Z,93.60
2019-05-20T04:03:13.762Z,93.70
2019-05-20T04:05:45.877Z,93.70
2019-05-20T04:08:14.530Z,93.80
2019-05-20T04:10:40.886Z,93.70
2019-05-20T04:13:13.410Z,93.80
2019-05-20T04:15:40.309Z,93.90
2019-05-20T04:18:06.653Z,93.90
2019-05-20T04:20:32.902Z,94.10
2019-05-20T04:22:59.182Z,94.10
2019-05-20T04:25:25.444Z,94.30
2019-05-20T04:27:51.769Z,94.40
2019-05-20T04:30:19.217Z,94.50
2019-05-20T04:32:45.558Z,94.50
2019-05-20T04:35:22.521Z,94.60
2019-05-20T04:37:40.115Z,94.70
2019-05-20T04:40:07.729Z,94.70
2019-05-20T04:42:33.941Z,94.70
2019-05-20T04:45:00.178Z,94.80
2019-05-20T04:47:26.411Z,94.80
2019-05-20T04:49:52.670Z,94.90
2019-05-20T04:52:18.905Z,95.00
2019-05-20T04:54:45.130Z,95.00
2019-05-20T04:57:15.792Z,95.10
2019-05-20T04:59:43.629Z,95.30
2019-05-20T05:02:09.837Z,95.30
2019-05-20T05:04:36.094Z,95.30
2019-05-20T05:07:02.322Z,95.50
2019-05-20T05:09:28.646Z,95.60
2019-05-20T05:12:01.506Z,95.60
2019-05-20T05:14:28.656Z,95.50
2019-05-20T05:16:55.084Z,95.50
2019-05-20T05:19:28.550Z,95.50
2019-05-20T05:21:55.605Z,95.50
2019-05-20T05:24:21.940Z,95.60
2019-05-20T05:26:48.376Z,95.60
2019-05-20T05:29:14.609Z,95.90
2019-05-20T05:31:41.472Z,95.70
2019-05-20T05:34:07.756Z,95.70
2019-05-20T05:36:34.081Z,95.60
2019-05-20T05:39:00.321Z,95.70
2019-05-20T05:41:26.576Z,95.70
2019-05-20T05:43:52.795Z,95.60
2019-05-20T05:46:19.032Z,95.50
2019-05-20T05:48:53.003Z,95.50
2019-05-20T05:51:19.895Z,95.50
2019-05-20T05:53:46.216Z,95.50
2019-05-20T05:56:12.757Z,95.50
2019-05-20T05:58:47.258Z,95.30
2019-05-20T06:01:20.111Z,95.30
2019-05-20T06:03:47.081Z,95.20
2019-05-20T06:06:13.671Z,95.30
2019-05-20T06:08:39.964Z,95.30
2019-05-20T06:11:06.294Z,95.30
2019-05-20T06:13:32.531Z,95.30
2019-05-20T06:15:58.763Z,95.20
2019-05-20T06:18:24.995Z,95.20
2019-05-20T06:20:51.389Z,95.30
2019-05-20T06:23:17.643Z,95.00
2019-05-20T06:25:43.894Z,94.70
2019-05-20T06:28:10.133Z,94.70
2019-05-20T06:30:41.493Z,94.70
2019-05-20T06:33:07.804Z,94.80
2019-05-20T06:35:34.635Z,94.80
2019-05-20T06:38:03.435Z,94.90
2019-05-20T06:40:32.837Z,94.90
2019-05-20T06:42:59.134Z,95.10
2019-05-20T06:45:25.366Z,95.00
2019-05-20T06:47:51.600Z,94.90
2019-05-20T06:50:17.878Z,94.90
2019-05-20T06:52:44.113Z,94.80
2019-05-20T06:55:11.124Z,94.70
2019-05-20T06:57:38.531Z,94.70
2019-05-20T07:00:07.565Z,94.60
2019-05-20T07:02:34.216Z,94.70
2019-05-20T07:05:00.427Z,94.70
2019-05-20T07:07:26.753Z,94.70
2019-05-20T07:09:52.980Z,94.80
2019-05-20T07:12:19.269Z,94.80
2019-05-20T07:14:46.088Z,94.90
2019-05-20T07:17:12.349Z,95.10
2019-05-20T07:19:39.933Z,95.10
2019-05-20T07:22:06.169Z,95.00
2019-05-20T07:24:32.385Z,95.00
2019-05-20T07:26:58.622Z,95.00
2019-05-20T07:29:24.912Z,95.10
2019-05-20T07:31:51.177Z,95.10
2019-05-20T07:34:17.932Z,95.10
2019-05-20T07:36:44.365Z,95.10
2019-05-20T07:39:10.603Z,95.20
2019-05-20T07:41:40.940Z,95.30
2019-05-20T07:44:04.983Z,95.40
2019-05-20T07:46:33.072Z,95.40
2019-05-20T07:48:59.848Z,95.40
2019-05-20T07:51:27.364Z,95.40
2019-05-20T07:53:54.680Z,95.40
2019-05-20T07:56:31.164Z,95.50
2019-05-20T07:59:03.109Z,95.50
2019-05-20T08:01:29.782Z,95.50
2019-05-20T08:03:56.062Z,95.50
2019-05-20T08:06:22.474Z,95.50
2019-05-20T08:08:48.970Z,95.50
2019-05-20T08:11:15.217Z,95.50
2019-05-20T08:13:41.567Z,95.50
2019-05-20T08:16:07.828Z,95.50
2019-05-20T08:18:34.171Z,95.70
2019-05-20T08:21:00.530Z,95.50
2019-05-20T08:23:26.787Z,95.40
2019-05-20T08:25:53.274Z,95.20
2019-05-20T08:28:19.571Z,95.20
2019-05-20T08:30:45.955Z,95.10
2019-05-20T08:33:12.181Z,94.90
2019-05-20T08:35:38.856Z,94.90
2019-05-20T08:38:05.423Z,94.90
2019-05-20T08:40:31.966Z,94.80
2019-05-20T08:42:58.505Z,94.80
2019-05-20T08:45:26.818Z,94.80
2019-05-20T08:47:53.069Z,94.70
2019-05-20T08:50:19.508Z,94.70
2019-05-20T08:52:45.970Z,94.50
2019-05-20T08:55:13.222Z,94.40
2019-05-20T08:57:39.474Z,94.40
2019-05-20T09:00:09.908Z,94.30
2019-05-20T09:02:36.148Z,94.40
2019-05-20T09:05:04.628Z,94.40
2019-05-20T09:07:30.927Z,94.80
2019-05-20T09:09:57.173Z,94.50
2019-05-20T09:12:23.478Z,94.60
2019-05-20T09:14:49.772Z,94.60
2019-05-20T09:17:15.934Z,94.60
2019-05-20T09:19:42.177Z,94.50
2019-05-20T09:22:08.441Z,94.50
2019-05-20T09:24:34.744Z,94.50
2019-05-20T09:27:01.146Z,94.60
2019-05-20T09:29:27.461Z,94.60
2019-05-20T09:31:54.196Z,94.60
2019-05-20T09:34:20.825Z,94.60
2019-05-20T09:36:47.386Z,94.60
2019-05-20T09:39:13.636Z,94.60
2019-05-20T09:41:41.799Z,94.60
2019-05-20T09:44:08.025Z,94.60
2019-05-20T09:46:34.313Z,94.60
2019-05-20T09:49:00.558Z,94.60
2019-05-20T09:51:26.802Z,94.60
2019-05-20T09:53:53.105Z,94.70
2019-05-20T09:56:19.322Z,94.60
2019-05-20T09:58:45.529Z,94.60
2019-05-20T10:01:11.762Z,94.70
2019-05-20T10:03:38.042Z,95.00
2019-05-20T10:06:04.685Z,94.80
2019-05-20T10:08:37.951Z,94.90
2019-05-20T10:11:00.128Z,94.90
2019-05-20T10:13:27.037Z,95.10
2019-05-20T10:15:53.267Z,95.10
2019-05-20T10:18:36.067Z,95.10
2019-05-20T10:20:47.717Z,95.10
2019-05-20T10:23:15.902Z,95.10
2019-05-20T10:25:42.083Z,95.10
2019-05-20T10:28:08.315Z,95.10
2019-05-20T10:30:40.432Z,95.10
2019-05-20T10:33:09.572Z,95.10
2019-05-20T10:35:34.901Z,95.10
2019-05-20T10:38:01.275Z,95.10
2019-05-20T10:40:27.511Z,94.90
2019-05-20T10:42:53.768Z,94.60
2019-05-20T10:45:19.998Z,94.50
2019-05-20T10:47:46.251Z,94.40
2019-05-20T10:50:12.894Z,94.40
2019-05-20T10:52:39.159Z,94.50
2019-05-20T10:55:06.640Z,94.40
2019-05-20T10:57:32.906Z,94.20
2019-05-20T10:59:59.154Z,94.10
2019-05-20T11:02:25.392Z,94.10
2019-05-20T11:04:51.693Z,94.10
2019-05-20T11:07:17.904Z,94.10
2019-05-20T11:09:46.056Z,93.90
2019-05-20T11:12:12.389Z,93.60
2019-05-20T11:14:38.993Z,93.40
2019-05-20T11:17:05.220Z,93.40
2019-05-20T11:19:39.191Z,93.50
2019-05-20T11:22:06.021Z,93.50
2019-05-20T11:24:32.268Z,93.60
2019-05-20T11:26:58.496Z,93.70
2019-05-20T11:29:24.777Z,93.90
2019-05-20T11:31:51.042Z,93.90
2019-05-20T11:34:17.402Z,93.70
2019-05-20T11:36:43.747Z,93.70
2019-05-20T11:39:10.015Z,93.50
2019-05-20T11:41:53.932Z,92.70
2019-05-20T11:44:04.597Z,92.50
2019-05-20T11:46:31.071Z,92.40
2019-05-20T11:48:57.663Z,92.20
2019-05-20T11:51:24.017Z,91.80
2019-05-20T11:53:50.252Z,91.40
2019-05-20T11:56:16.755Z,91.10
2019-05-20T11:58:42.984Z,90.40
2019-05-20T12:01:09.243Z,90.20
2019-05-20T12:03:35.589Z,90.40
2019-05-20T12:06:02.551Z,90.20
2019-05-20T12:08:29.492Z,90.20
2019-05-20T12:10:55.748Z,90.20
2019-05-20T12:13:21.992Z,90.20
2019-05-20T12:15:48.233Z,90.30
2019-05-20T12:18:14.469Z,90.60
2019-05-20T12:20:40.970Z,90.70
2019-05-20T12:23:07.208Z,90.90
2019-05-20T12:25:33.444Z,90.90
2019-05-20T12:28:00.101Z,91.10
2019-05-20T12:30:26.413Z,91.00
2019-05-20T12:33:15.634Z,91.40
2019-05-20T12:35:20.837Z,91.10
2019-05-20T12:37:47.109Z,91.20
2019-05-20T12:40:14.321Z,91.30
2019-05-20T12:42:40.546Z,91.30
2019-05-20T12:45:08.522Z,91.40
2019-05-20T12:47:34.849Z,91.50
2019-05-20T12:50:01.197Z,91.70
2019-05-20T12:52:27.451Z,92.00
2019-05-20T12:55:06.970Z,92.10
2019-05-20T12:57:21.880Z,92.20
2019-05-20T12:59:48.092Z,92.20
2019-05-20T13:02:17.285Z,92.20
2019-05-20T13:04:42.455Z,92.10
2019-05-20T13:07:08.902Z,92.00
2019-05-20T13:09:35.126Z,92.10
2019-05-20T13:12:01.422Z,92.10
2019-05-20T13:14:27.719Z,92.10
2019-05-20T13:16:53.943Z,92.00
2019-05-20T13:19:20.192Z,92.10
2019-05-20T13:21:46.421Z,92.20
2019-05-20T13:24:15.637Z,92.40
2019-05-20T13:26:41.895Z,92.60
2019-05-20T13:29:08.125Z,92.70
2019-05-20T13:31:35.447Z,92.80
2019-05-20T13:34:01.671Z,93.00
2019-05-20T13:36:27.906Z,93.10
2019-05-20T13:38:54.154Z,93.30
2019-05-20T13:41:20.380Z,93.40
2019-05-20T13:43:46.674Z,93.50
2019-05-20T13:46:12.949Z,93.70
2019-05-20T13:48:39.199Z,94.00
2019-05-20T13:51:05.419Z,94.10
2019-05-20T13:53:31.762Z,94.30
2019-05-20T13:55:58.791Z,94.30
2019-05-20T13:58:25.008Z,94.50
2019-05-20T14:00:51.252Z,94.80
2019-05-20T14:03:17.565Z,95.30
2019-05-20T14:05:43.798Z,95.60
2019-05-20T14:08:12.144Z,96.00
2019-05-20T14:10:39.057Z,96.30
2019-05-20T14:13:05.384Z,96.40
2019-05-20T14:15:31.625Z,96.50
2019-05-20T14:17:57.888Z,96.70
2019-05-20T14:20:24.179Z,96.70
2019-05-20T14:22:50.406Z,96.70
2019-05-20T14:25:16.834Z,96.80
2019-05-20T14:27:43.083Z,96.90
2019-05-20T14:30:09.897Z,97.00
2019-05-20T14:32:36.599Z,97.10
2019-05-20T14:35:05.423Z,97.10
2019-05-20T14:37:31.703Z,97.20
2019-05-20T14:39:58.010Z,97.30
2019-05-20T14:42:25.668Z,97.40
2019-05-20T14:44:52.106Z,97.50
2019-05-20T14:47:18.329Z,97.40
2019-05-20T14:49:44.570Z,97.40
2019-05-20T14:52:10.785Z,97.30
2019-05-20T14:54:37.089Z,97.20
2019-05-20T14:57:03.449Z,97.20
2019-05-20T14:59:29.800Z,97.00
2019-05-20T15:01:57.072Z,97.10
2019-05-20T15:04:23.289Z,96.90
2019-05-20T15:06:49.529Z,96.80
2019-05-20T15:09:15.869Z,96.50
2019-05-20T15:11:42.162Z,96.40
2019-05-20T15:14:08.395Z,96.20
2019-05-20T15:16:34.838Z,96.10
2019-05-20T15:19:01.074Z,95.40
2019-05-20T15:21:29.475Z,95.50
2019-05-20T15:23:55.473Z,95.30
2019-05-20T15:26:22.940Z,95.20
2019-05-20T15:28:49.214Z,95.10
2019-05-20T15:31:15.458Z,95.10
2019-05-20T15:33:41.922Z,95.20
2019-05-20T15:36:08.143Z,95.20
2019-05-20T15:38:34.707Z,95.20
2019-05-20T15:41:00.912Z,95.10
2019-05-20T15:43:27.153Z,95.10
2019-05-20T15:45:53.423Z,95.20
2019-05-20T15:48:19.665Z,95.10
2019-05-20T15:50:45.896Z,95.20
2019-05-20T15:53:13.338Z,95.10
2019-05-20T15:55:39.910Z,95.20
2019-05-20T15:58:06.136Z,95.20
2019-05-20T16:00:33.208Z,95.20
2019-05-20T16:02:59.489Z,95.20
2019-05-20T16:05:26.026Z,94.80
2019-05-20T16:07:52.377Z,94.80
2019-05-20T16:10:18.621Z,94.80
2019-05-20T16:12:45.256Z,94.60
2019-05-20T16:15:11.780Z,94.60
2019-05-20T16:17:38.572Z,94.50
2019-05-20T16:20:07.079Z,94.40
2019-05-20T16:22:33.722Z,94.40
2019-05-20T16:24:59.935Z,94.50
2019-05-20T16:27:26.306Z,94.60
2019-05-20T16:30:05.463Z,94.80
2019-05-20T16:32:20.868Z,94.90
2019-05-20T16:34:47.202Z,95.00
2019-05-20T16:37:14.412Z,95.00
2019-05-20T16:39:40.637Z,95.10
2019-05-20T16:42:06.864Z,95.20
2019-05-20T16:44:33.122Z,95.40
2019-05-20T16:46:59.320Z,95.40
2019-05-20T16:49:25.560Z,95.50
2019-05-20T16:51:51.798Z,95.60
2019-05-20T16:54:18.355Z,95.70
2019-05-20T16:56:44.632Z,95.80
2019-05-20T16:59:10.899Z,95.90
2019-05-20T17:01:45.869Z,96.00
2019-05-20T17:04:05.278Z,96.20
2019-05-20T17:06:31.814Z,96.20
2019-05-20T17:08:58.078Z,96.30
2019-05-20T17:11:24.339Z,96.50
2019-05-20T17:13:50.615Z,96.60
2019-05-20T17:16:16.844Z,96.70
2019-05-20T17:18:44.140Z,96.80
2019-05-20T17:21:10.390Z,96.90
2019-05-20T17:23:45.245Z,97.10
2019-05-20T17:26:12.888Z,97.20
2019-05-20T17:28:39.166Z,97.30
2019-05-20T17:31:05.534Z,97.40
2019-05-20T17:33:32.069Z,97.50
2019-05-20T17:35:58.339Z,97.60
2019-05-20T17:38:24.588Z,97.60
2019-05-20T17:40:58.713Z,97.60
2019-05-20T17:43:26.329Z,97.60
2019-05-20T17:45:52.886Z,97.70
2019-05-20T17:48:19.146Z,97.70
2019-05-20T17:50:45.814Z,97.80
2019-05-20T17:53:12.489Z,97.70
2019-05-20T17:55:53.543Z,97.90
2019-05-20T17:58:20.249Z,98.00
2019-05-20T18:00:46.935Z,98.00
2019-05-20T18:03:13.594Z,98.10
2019-05-20T18:05:46.213Z,98.20
2019-05-20T18:08:25.099Z,98.10
2019-05-20T18:10:51.214Z,98.10
2019-05-20T18:13:21.334Z,98.20
2019-05-20T18:15:59.718Z,98.30
2019-05-20T18:18:45.250Z,98.30
2019-05-20T18:21:18.806Z,98.30
2019-05-20T18:23:45.931Z,98.30
2019-05-20T18:26:13.093Z,98.30
2019-05-20T18:28:40.277Z,98.30
2019-05-20T18:31:07.643Z,98.30
2019-05-20T18:33:34.925Z,98.30
2019-05-20T18:36:01.866Z,98.30
2019-05-20T18:38:29.197Z,98.30
2019-05-20T18:40:57.038Z,98.30
2019-05-20T18:43:24.409Z,98.80
2019-05-20T18:45:51.953Z,99.50
2019-05-20T18:48:19.719Z,99.20
2019-05-20T18:50:48.002Z,99.10
2019-05-20T18:53:15.892Z,98.90
2019-05-20T18:55:43.894Z,98.90
2019-05-20T18:58:11.885Z,98.70
2019-05-20T19:00:39.880Z,98.70
2019-05-20T19:03:07.772Z,98.70
2019-05-20T19:05:35.603Z,98.70
2019-05-20T19:08:03.715Z,98.60
2019-05-20T19:10:31.777Z,98.70
2019-05-20T19:12:59.732Z,98.60
2019-05-20T19:15:27.726Z,98.70
2019-05-20T19:17:55.659Z,98.70
2019-05-20T19:20:23.659Z,98.70
2019-05-20T19:22:51.511Z,98.70
2019-05-20T19:25:19.894Z,98.70
2019-05-20T19:27:47.938Z,98.70
2019-05-20T19:30:16.617Z,98.70
2019-05-20T19:32:44.565Z,98.70
2019-05-20T19:35:12.446Z,98.70
2019-05-20T19:37:43.706Z,98.70
2019-05-20T19:40:12.171Z,98.70
2019-05-20T19:42:40.290Z,98.80
2019-05-20T19:45:09.669Z,98.70
2019-05-20T19:47:37.631Z,98.70
2019-05-20T19:50:06.819Z,98.60
2019-05-20T19:52:35.102Z,98.60
2019-05-20T19:55:04.057Z,98.60
2019-05-20T19:57:33.378Z,98.50
2019-05-20T20:00:01.725Z,98.50
2019-05-20T20:02:29.567Z,98.40
2019-05-20T20:04:57.566Z,98.60
2019-05-20T20:07:28.665Z,98.20
2019-05-20T20:09:55.553Z,98.10
2019-05-20T20:12:23.253Z,98.00
2019-05-20T20:14:51.123Z,97.80
2019-05-20T20:17:19.248Z,97.70
2019-05-20T20:19:46.568Z,97.70
2019-05-20T20:22:14.181Z,97.70
2019-05-20T20:24:41.339Z,97.60
2019-05-20T20:27:08.372Z,97.60
2019-05-20T20:29:35.072Z,97.60
2019-05-20T20:32:01.396Z,97.60
2019-05-20T20:34:30.560Z,97.60
2019-05-20T20:36:56.091Z,97.60
2019-05-20T20:39:22.339Z,97.60
2019-05-20T20:41:48.570Z,97.70
2019-05-20T20:44:14.807Z,97.70
2019-05-20T20:46:41.051Z,97.70
2019-05-20T20:49:07.294Z,97.70
2019-05-20T20:51:33.829Z,97.70
2019-05-20T20:54:00.074Z,97.80
2019-05-20T20:56:26.318Z,98.10
2019-05-20T20:58:52.568Z,97.70
2019-05-20T21:01:18.819Z,97.70
2019-05-20T21:03:45.063Z,97.70
2019-05-20T21:06:11.332Z,97.80
2019-05-20T21:08:37.685Z,97.80
2019-05-20T21:11:03.894Z,97.80
2019-05-20T21:13:30.132Z,97.80
2019-05-20T21:15:58.553Z,97.80
2019-05-20T21:18:24.539Z,97.70
2019-05-20T21:20:50.743Z,97.70
2019-05-20T21:23:17.587Z,97.80
2019-05-20T21:25:43.852Z,97.80
2019-05-20T21:28:10.076Z,97.80
2019-05-20T21:30:36.316Z,97.80
2019-05-20T21:33:09.177Z,97.80
2019-05-20T21:35:30.811Z,97.80
2019-05-20T21:37:57.180Z,97.90
2019-05-20T21:40:23.416Z,97.90
2019-05-20T21:42:49.784Z,98.00
2019-05-20T21:45:35.898Z,98.00
2019-05-20T21:48:02.126Z,98.10
2019-05-20T21:50:28.607Z,98.10
2019-05-20T21:52:54.851Z,98.10
2019-05-20T21:55:21.443Z,98.10
2019-05-20T21:57:48.181Z,98.10
2019-05-20T22:00:17.359Z,98.10
2019-05-20T22:02:43.602Z,98.00
2019-05-20T22:05:09.919Z,98.00
2019-05-20T22:07:36.220Z,98.00
2019-05-20T22:10:05.444Z,98.00
2019-05-20T22:12:31.663Z,97.90
2019-05-20T22:14:57.901Z,97.90
2019-05-20T22:17:24.157Z,98.00
2019-05-20T22:19:50.396Z,97.90
2019-05-20T22:22:21.176Z,97.80
2019-05-20T22:24:47.392Z,97.80
2019-05-20T22:27:15.195Z,97.80
2019-05-20T22:29:41.408Z,97.80
2019-05-20T22:32:07.764Z,97.80
2019-05-20T22:34:34.218Z,97.80
2019-05-20T22:37:00.444Z,97.80
2019-05-20T22:39:26.902Z,97.80
2019-05-20T22:41:53.329Z,97.80
2019-05-20T22:44:19.607Z,97.70
2019-05-20T22:46:45.875Z,97.60
2019-05-20T22:49:12.089Z,97.50
2019-05-20T22:51:38.356Z,97.50
2019-05-20T22:54:04.718Z,97.40
2019-05-20T22:56:30.988Z,97.40
2019-05-20T22:58:58.222Z,97.10
2019-05-20T23:01:24.467Z,97.50
2019-05-20T23:03:56.324Z,97.50
2019-05-20T23:06:19.146Z,97.60
2019-05-20T23:08:45.408Z,97.70
2019-05-20T23:11:11.642Z,97.70
2019-05-20T23:13:37.872Z,97.90
2019-05-20T23:16:04.108Z,98.00
2019-05-20T23:18:30.349Z,98.10
2019-05-20T23:20:56.591Z,98.20
2019-05-20T23:23:22.873Z,98.30
2019-05-20T23:25:52.585Z,98.50
2019-05-20T23:28:17.333Z,98.60
2019-05-20T23:30:43.545Z,98.60
2019-05-20T23:33:09.836Z,98.70
2019-05-20T23:35:36.086Z,99.00
2019-05-20T23:38:02.531Z,98.70
2019-05-20T23:40:28.770Z,98.70
2019-05-20T23:42:55.059Z,98.80
2019-05-20T23:45:21.320Z,98.90
2019-05-20T23:47:47.543Z,99.00
2019-05-20T23:50:14.011Z,99.00
2019-05-20T23:52:40.365Z,99.00
2019-05-20T23:55:08.457Z,99.00
2019-05-20T23:57:34.704Z,99.00
